createdAt,value
2017-03-24T00:01:04.402Z,57.71
2017-03-24T00:02:14.656Z,58.09
2017-03-24T00:03:24.917Z,58.09
2017-03-24T00:04:35.177Z,58.56
2017-03-24T00:05:45.431Z,59.03
2017-03-24T00:06:55.375Z,59.98
2017-03-24T00:08:05.326Z,61.77
2017-03-24T00:09:15.592Z,61.49
2017-03-24T00:10:25.845Z,61.77
2017-03-24T00:11:36.109Z,61.21
2017-03-24T00:12:46.368Z,61.3
2017-03-24T00:13:56.627Z,61.49
2017-03-24T00:15:06.894Z,62.44
2017-03-24T00:16:17.170Z,62.44
2017-03-24T00:17:27.109Z,63.1
2017-03-24T00:18:37.364Z,62.34
2017-03-24T00:19:47.305Z,62.06
2017-03-24T00:20:57.562Z,61.21
2017-03-24T00:22:07.821Z,61.4
2017-03-24T00:23:18.085Z,61.96
2017-03-24T00:24:28.033Z,63
2017-03-24T00:25:37.988Z,63.19
2017-03-24T00:26:48.242Z,63.1
2017-03-24T00:27:58.500Z,61.87
2017-03-24T00:29:08.762Z,62.44
2017-03-24T00:30:19.018Z,62.53
2017-03-24T00:31:29.267Z,61.11
2017-03-24T00:32:39.533Z,61.49
2017-03-24T00:33:49.791Z,62.15
2017-03-24T00:35:00.053Z,61.58
2017-03-24T00:36:10.311Z,62.44
2017-03-24T00:37:20.570Z,62.44
2017-03-24T00:38:30.817Z,64.51
2017-03-24T00:39:41.091Z,63.67
2017-03-24T00:40:51.348Z,63.19
2017-03-24T00:42:01.606Z,63.26
2017-03-24T00:43:11.860Z,63
2017-03-24T00:44:22.119Z,62.21
2017-03-24T00:45:32.063Z,62.34
2017-03-24T00:46:42.316Z,63.07
2017-03-24T00:47:52.572Z,63.07
2017-03-24T00:49:02.838Z,63.45
2017-03-24T00:50:13.094Z,63.35
2017-03-24T00:51:23.352Z,63.54
2017-03-24T00:52:33.286Z,63.45
2017-03-24T00:53:43.225Z,63.26
2017-03-24T00:54:53.483Z,62.02
2017-03-24T00:56:03.751Z,61.36
2017-03-24T00:57:13.688Z,61.93
2017-03-24T00:58:23.630Z,61.46
2017-03-24T00:59:33.885Z,61.27
2017-03-24T01:00:44.137Z,61.18
2017-03-24T01:01:54.385Z,61.18
2017-03-24T01:03:04.643Z,61.27
2017-03-24T01:04:14.908Z,61.08
2017-03-24T01:05:25.178Z,61.27
2017-03-24T01:06:35.113Z,61.27
2017-03-24T01:07:45.367Z,61.65
2017-03-24T01:08:55.637Z,61.55
2017-03-24T01:10:05.584Z,62.5
2017-03-24T01:11:15.842Z,64.67
2017-03-24T01:12:25.793Z,66.28
2017-03-24T01:13:35.741Z,66.94
2017-03-24T01:14:45.685Z,67.72
2017-03-24T01:15:55.939Z,67.91
2017-03-24T01:17:06.194Z,67.63
2017-03-24T01:18:16.140Z,67.54
2017-03-24T01:19:26.401Z,68.57
2017-03-24T01:20:36.653Z,68.57
2017-03-24T01:21:46.901Z,67.63
2017-03-24T01:22:56.525Z,66.88
2017-03-24T01:24:06.794Z,67.54
2017-03-24T01:25:16.425Z,67.07
2017-03-24T01:26:26.688Z,66.5
2017-03-24T01:27:36.946Z,66.03
2017-03-24T01:28:47.211Z,66.22
2017-03-24T01:29:57.476Z,66.22
2017-03-24T01:31:07.738Z,65.65
2017-03-24T01:32:17.988Z,64.32
2017-03-24T01:33:28.252Z,63.67
2017-03-24T01:34:37.878Z,63.67
2017-03-24T01:35:48.129Z,62.81
2017-03-24T01:36:58.062Z,63.1
2017-03-24T01:38:08.320Z,63.57
2017-03-24T01:39:18.626Z,64.42
2017-03-24T01:40:28.890Z,64.79
2017-03-24T01:41:39.143Z,64.32
2017-03-24T01:42:49.092Z,64.14
2017-03-24T01:43:59.348Z,63.95
2017-03-24T01:45:09.292Z,64.32
2017-03-24T01:46:19.230Z,64.42
2017-03-24T01:47:29.491Z,65.17
2017-03-24T01:48:39.744Z,65.74
2017-03-24T01:49:50.005Z,67.25
2017-03-24T01:50:59.948Z,67.82
2017-03-24T01:52:10.205Z,68.67
2017-03-24T01:53:20.183Z,68.57
2017-03-24T01:54:30.445Z,67.82
2017-03-24T01:55:40.394Z,67.82
2017-03-24T01:56:50.648Z,68.48
2017-03-24T01:58:00.908Z,66.31
2017-03-24T01:59:10.900Z,66.69
2017-03-24T02:00:20.845Z,66.69
2017-03-24T02:01:30.782Z,67.54
2017-03-24T02:02:40.738Z,68.95
2017-03-24T02:03:50.682Z,69.14
2017-03-24T02:05:00.949Z,68.01
2017-03-24T02:06:10.885Z,66.78
2017-03-24T02:07:21.136Z,65.46
2017-03-24T02:08:31.390Z,64.7
2017-03-24T02:09:41.654Z,65.9
2017-03-24T02:10:51.903Z,65.42
2017-03-24T02:12:02.151Z,65.71
2017-03-24T02:13:12.427Z,66.47
2017-03-24T02:14:22.688Z,64.95
2017-03-24T02:15:32.673Z,65.23
2017-03-24T02:16:42.616Z,65.23
2017-03-24T02:17:52.863Z,64.86
2017-03-24T02:19:05.373Z,64.76
2017-03-24T02:20:15.310Z,65.14
2017-03-24T02:21:25.566Z,65.52
2017-03-24T02:22:35.828Z,65.05
2017-03-24T02:23:46.088Z,65.71
2017-03-24T02:24:56.352Z,64.95
2017-03-24T02:26:05.989Z,65.61
2017-03-24T02:27:16.245Z,66.65
2017-03-24T02:28:26.502Z,66.56
2017-03-24T02:29:36.760Z,65.8
2017-03-24T02:30:47.021Z,65.23
2017-03-24T02:31:57.279Z,65.14
2017-03-24T02:33:07.219Z,65.14
2017-03-24T02:34:17.160Z,64.48
2017-03-24T02:35:27.419Z,64.48
2017-03-24T02:36:37.671Z,64.39
2017-03-24T02:37:47.622Z,64.58
2017-03-24T02:38:57.569Z,64.95
2017-03-24T02:40:07.834Z,65.14
2017-03-24T02:41:17.782Z,65.23
2017-03-24T02:42:28.035Z,65.61
2017-03-24T02:43:38.296Z,66.18
2017-03-24T02:44:48.242Z,65.14
2017-03-24T02:45:58.499Z,65.33
2017-03-24T02:47:08.480Z,64.48
2017-03-24T02:48:18.417Z,65.23
2017-03-24T02:49:28.361Z,65.05
2017-03-24T02:50:38.306Z,64.95
2017-03-24T02:51:48.561Z,64.2
2017-03-24T02:52:58.811Z,63.73
2017-03-24T02:54:08.776Z,62.88
2017-03-24T02:55:19.026Z,63.26
2017-03-24T02:56:29.291Z,62.4
2017-03-24T02:57:39.549Z,62.21
2017-03-24T02:58:49.809Z,62.31
2017-03-24T03:00:00.062Z,62.4
2017-03-24T03:01:10.010Z,62.4
2017-03-24T03:02:20.263Z,62.97
2017-03-24T03:03:30.519Z,63.16
2017-03-24T03:04:40.780Z,62.5
2017-03-24T03:05:51.040Z,62.31
2017-03-24T03:07:00.981Z,62.69
2017-03-24T03:08:11.242Z,63.16
2017-03-24T03:09:21.191Z,62.21
2017-03-24T03:10:31.448Z,62.02
2017-03-24T03:11:41.844Z,61.55
2017-03-24T03:12:51.468Z,61.36
2017-03-24T03:14:01.728Z,60.99
2017-03-24T03:15:11.983Z,60.8
2017-03-24T03:16:21.921Z,60.8
2017-03-24T03:17:32.168Z,60.8
2017-03-24T03:18:42.422Z,60.8
2017-03-24T03:19:52.684Z,61.55
2017-03-24T03:21:02.940Z,62.12
2017-03-24T03:22:13.193Z,61.84
2017-03-24T03:23:23.137Z,61.55
2017-03-24T03:24:33.092Z,60.89
2017-03-24T03:25:43.045Z,61.93
2017-03-24T03:26:53.329Z,62.12
2017-03-24T03:28:03.580Z,62.12
2017-03-24T03:29:13.526Z,61.46
2017-03-24T03:30:23.468Z,62.21
2017-03-24T03:31:33.713Z,62.02
2017-03-24T03:32:43.344Z,62.21
2017-03-24T03:33:53.608Z,62.59
2017-03-24T03:35:03.868Z,62.02
2017-03-24T03:36:14.128Z,62.12
2017-03-24T03:37:24.426Z,61.65
2017-03-24T03:38:34.741Z,61.55
2017-03-24T03:39:44.998Z,61.74
2017-03-24T03:40:55.258Z,61.27
2017-03-24T03:42:05.514Z,61.18
2017-03-24T03:43:15.773Z,61.27
2017-03-24T03:44:26.034Z,61.27
2017-03-24T03:45:35.981Z,61.36
2017-03-24T03:46:45.923Z,61.55
2017-03-24T03:47:56.178Z,62.21
2017-03-24T03:49:06.440Z,62.12
2017-03-24T03:50:16.696Z,61.46
2017-03-24T03:51:26.636Z,61.55
2017-03-24T03:52:36.274Z,60.99
2017-03-24T03:53:46.532Z,61.08
2017-03-24T03:54:56.790Z,60.99
2017-03-24T03:56:07.046Z,60.99
2017-03-24T03:57:16.990Z,61.36
2017-03-24T03:58:27.237Z,61.18
2017-03-24T03:59:37.499Z,61.27
2017-03-24T04:00:47.757Z,61.27
2017-03-24T04:01:58.011Z,61.08
2017-03-24T04:03:07.956Z,60.52
2017-03-24T04:04:18.221Z,60.33
2017-03-24T04:05:28.477Z,59.29
2017-03-24T04:06:38.725Z,59.76
2017-03-24T04:07:48.980Z,59.79
2017-03-24T04:08:59.239Z,60.27
2017-03-24T04:10:09.500Z,61.36
2017-03-24T04:11:19.441Z,61.87
2017-03-24T04:12:29.698Z,61.55
2017-03-24T04:13:39.970Z,62.31
2017-03-24T04:14:50.233Z,62.44
2017-03-24T04:16:00.178Z,62.12
2017-03-24T04:17:10.442Z,62.15
2017-03-24T04:18:20.696Z,61.49
2017-03-24T04:19:30.642Z,62.59
2017-03-24T04:20:40.907Z,62.44
2017-03-24T04:21:51.160Z,61.58
2017-03-24T04:23:01.420Z,61.49
2017-03-24T04:24:11.716Z,61.3
2017-03-24T04:25:21.970Z,61.4
2017-03-24T04:26:32.227Z,61.49
2017-03-24T04:27:42.477Z,61.46
2017-03-24T04:28:52.737Z,61.58
2017-03-24T04:30:02.998Z,62.5
2017-03-24T04:31:12.623Z,63.63
2017-03-24T04:32:22.878Z,63.73
2017-03-24T04:33:33.134Z,63.26
2017-03-24T04:34:43.396Z,61.74
2017-03-24T04:35:53.664Z,61.27
2017-03-24T04:37:03.927Z,61.18
2017-03-24T04:38:14.179Z,61.18
2017-03-24T04:39:24.439Z,61.18
2017-03-24T04:40:34.702Z,61.46
2017-03-24T04:41:44.963Z,61.55
2017-03-24T04:42:54.906Z,61.65
2017-03-24T04:44:04.862Z,61.65
2017-03-24T04:45:15.125Z,61.36
2017-03-24T04:46:25.068Z,61.18
2017-03-24T04:47:35.324Z,61.08
2017-03-24T04:48:45.271Z,60.33
2017-03-24T04:49:55.566Z,60.42
2017-03-24T04:51:05.514Z,59.95
2017-03-24T04:52:15.772Z,61.08
2017-03-24T04:53:26.022Z,61.55
2017-03-24T04:54:36.274Z,61.36
2017-03-24T04:55:46.527Z,61.36
2017-03-24T04:56:56.786Z,61.46
2017-03-24T04:58:07.035Z,61.27
2017-03-24T04:59:16.988Z,61.36
2017-03-24T05:00:27.259Z,61.55
2017-03-24T05:01:37.197Z,61.46
2017-03-24T05:02:47.450Z,61.46
2017-03-24T05:03:57.077Z,62.31
2017-03-24T05:05:07.337Z,61.93
2017-03-24T05:06:17.601Z,61.65
2017-03-24T05:07:27.851Z,61.46
2017-03-24T05:08:38.114Z,62.4
2017-03-24T05:09:48.378Z,63.26
2017-03-24T05:10:58.644Z,62.88
2017-03-24T05:12:08.582Z,62.78
2017-03-24T05:13:18.837Z,63.54
2017-03-24T05:14:29.117Z,64.39
2017-03-24T05:15:39.379Z,64.58
2017-03-24T05:16:49.635Z,64.11
2017-03-24T05:17:59.897Z,63.82
2017-03-24T05:19:10.158Z,63.54
2017-03-24T05:20:20.107Z,62.69
2017-03-24T05:21:30.370Z,62.21
2017-03-24T05:22:40.626Z,62.4
2017-03-24T05:23:50.886Z,63.16
2017-03-24T05:25:01.144Z,63.48
2017-03-24T05:26:11.073Z,63.48
2017-03-24T05:27:21.332Z,63.29
2017-03-24T05:28:31.276Z,63
2017-03-24T05:29:41.534Z,62.81
2017-03-24T05:30:51.473Z,62.62
2017-03-24T05:32:01.725Z,62.44
2017-03-24T05:33:11.675Z,63.48
2017-03-24T05:34:21.930Z,63.1
2017-03-24T05:35:32.193Z,63.19
2017-03-24T05:36:42.140Z,62.91
2017-03-24T05:37:52.103Z,62.81
2017-03-24T05:39:02.376Z,62.81
2017-03-24T05:40:12.640Z,62.15
2017-03-24T05:41:22.894Z,63.19
2017-03-24T05:42:32.836Z,63.57
2017-03-24T05:43:43.099Z,63.67
2017-03-24T05:44:53.367Z,63.76
2017-03-24T05:46:03.626Z,64.42
2017-03-24T05:47:13.570Z,65.46
2017-03-24T05:48:23.827Z,64.61
2017-03-24T05:49:34.086Z,64.14
2017-03-24T05:50:44.358Z,64.32
2017-03-24T05:51:54.610Z,64.04
2017-03-24T05:53:04.859Z,64.51
2017-03-24T05:54:15.127Z,64.61
2017-03-24T05:55:25.388Z,64.79
2017-03-24T05:56:35.644Z,64.61
2017-03-24T05:57:45.899Z,64.7
2017-03-24T05:58:56.160Z,65.17
2017-03-24T06:00:06.424Z,65.27
2017-03-24T06:01:17.031Z,65.08
2017-03-24T06:02:27.284Z,64.42
2017-03-24T06:03:37.221Z,64.89
2017-03-24T06:04:47.475Z,64.23
2017-03-24T06:05:57.729Z,64.51
2017-03-24T06:07:07.672Z,64.61
2017-03-24T06:08:17.304Z,64.42
2017-03-24T06:09:27.562Z,64.32
2017-03-24T06:10:37.816Z,64.32
2017-03-24T06:11:48.067Z,64.61
2017-03-24T06:12:58.316Z,64.79
2017-03-24T06:14:08.574Z,65.08
2017-03-24T06:15:18.839Z,64.04
2017-03-24T06:16:29.095Z,64.23
2017-03-24T06:17:38.420Z,63.76
2017-03-24T06:18:48.684Z,63.67
2017-03-24T06:19:58.630Z,64.23
2017-03-24T06:21:08.887Z,64.14
2017-03-24T06:22:19.144Z,63.76
2017-03-24T06:23:29.399Z,63.48
2017-03-24T06:24:39.671Z,63.29
2017-03-24T06:25:49.928Z,64.04
2017-03-24T06:27:00.229Z,63.85
2017-03-24T06:28:10.485Z,63.76
2017-03-24T06:29:20.117Z,63.38
2017-03-24T06:30:30.062Z,63.48
2017-03-24T06:31:39.686Z,62.34
2017-03-24T06:32:49.940Z,62.44
2017-03-24T06:34:00.209Z,62.53
2017-03-24T06:35:10.154Z,61.96
2017-03-24T06:36:20.412Z,62.06
2017-03-24T06:37:30.354Z,62.44
2017-03-24T06:38:40.622Z,63
2017-03-24T06:39:50.892Z,63.38
2017-03-24T06:41:00.839Z,64.42
2017-03-24T06:42:11.093Z,63.85
2017-03-24T06:43:21.349Z,64.14
2017-03-24T06:44:31.303Z,64.7
2017-03-24T06:45:41.558Z,65.08
2017-03-24T06:46:51.808Z,65.17
2017-03-24T06:48:02.068Z,64.14
2017-03-24T06:49:12.010Z,64.7
2017-03-24T06:50:22.273Z,65.27
2017-03-24T06:51:32.217Z,64.79
2017-03-24T06:52:41.841Z,65.36
2017-03-24T06:53:51.789Z,65.17
2017-03-24T06:55:02.057Z,64.98
2017-03-24T06:56:12.356Z,64.61
2017-03-24T06:57:22.611Z,65.08
2017-03-24T06:58:32.870Z,64.7
2017-03-24T06:59:43.135Z,63.57
2017-03-24T07:00:53.387Z,63
2017-03-24T07:02:03.641Z,62.81
2017-03-24T07:03:13.899Z,63.38
2017-03-24T07:04:24.162Z,63.76
2017-03-24T07:05:34.427Z,64.42
2017-03-24T07:06:44.687Z,63.19
2017-03-24T07:07:54.944Z,63.76
2017-03-24T07:09:04.897Z,63.57
2017-03-24T07:10:15.155Z,63.1
2017-03-24T07:11:25.117Z,64.7
2017-03-24T07:12:35.369Z,64.04
2017-03-24T07:13:45.324Z,64.79
2017-03-24T07:14:54.960Z,64.7
2017-03-24T07:16:05.213Z,64.32
2017-03-24T07:17:15.476Z,65.36
2017-03-24T07:18:25.729Z,65.55
2017-03-24T07:19:35.362Z,65.08
2017-03-24T07:20:45.311Z,64.64
2017-03-24T07:21:55.268Z,64.07
2017-03-24T07:23:05.213Z,64.23
2017-03-24T07:24:15.482Z,64.04
2017-03-24T07:25:25.752Z,63.67
2017-03-24T07:26:36.009Z,63.6
2017-03-24T07:27:46.269Z,63.51
2017-03-24T07:28:56.538Z,63.98
2017-03-24T07:30:06.815Z,64.64
2017-03-24T07:31:17.085Z,64.26
2017-03-24T07:32:27.348Z,64.64
2017-03-24T07:33:37.613Z,63.7
2017-03-24T07:34:47.557Z,63.32
2017-03-24T07:35:57.505Z,62.37
2017-03-24T07:37:07.170Z,61.61
2017-03-24T07:38:17.425Z,61.9
2017-03-24T07:39:27.685Z,61.43
2017-03-24T07:40:37.952Z,60.77
2017-03-24T07:41:48.206Z,60.49
2017-03-24T07:42:58.460Z,61.05
2017-03-24T07:44:08.721Z,60.77
2017-03-24T07:45:19.003Z,61.43
2017-03-24T07:46:28.944Z,61.18
2017-03-24T07:47:38.895Z,60.04
2017-03-24T07:48:49.206Z,61.18
2017-03-24T07:50:00.292Z,60.23
2017-03-24T07:51:10.234Z,60.52
2017-03-24T07:52:20.493Z,58.72
2017-03-24T07:53:30.757Z,58.15
2017-03-24T07:54:40.702Z,58.15
2017-03-24T07:55:50.334Z,58.25
2017-03-24T07:57:00.270Z,57.87
2017-03-24T07:58:10.530Z,59.85
2017-03-24T07:59:20.785Z,58.44
2017-03-24T08:00:31.042Z,57.96
2017-03-24T08:01:41.300Z,58.06
2017-03-24T08:02:51.242Z,58.06
2017-03-24T08:04:01.501Z,58.15
2017-03-24T08:05:11.757Z,58.06
2017-03-24T08:06:21.701Z,58.81
2017-03-24T08:07:31.967Z,58.53
2017-03-24T08:08:41.909Z,58.53
2017-03-24T08:09:52.163Z,58.44
2017-03-24T08:11:02.418Z,57.96
2017-03-24T08:12:12.359Z,59.28
2017-03-24T08:13:22.624Z,59.85
2017-03-24T08:14:32.570Z,58.53
2017-03-24T08:15:42.828Z,58.25
2017-03-24T08:16:52.770Z,58.72
2017-03-24T08:18:02.710Z,58.62
2017-03-24T08:19:12.962Z,58.06
2017-03-24T08:20:22.906Z,57.39
2017-03-24T08:21:32.848Z,57.2
2017-03-24T08:22:43.097Z,56.92
2017-03-24T08:23:53.355Z,57.58
2017-03-24T08:25:03.295Z,58.06
2017-03-24T08:26:13.239Z,58.37
2017-03-24T08:27:23.493Z,58.09
2017-03-24T08:28:33.748Z,58.37
2017-03-24T08:29:44.000Z,57.23
2017-03-24T08:30:54.252Z,56.57
2017-03-24T08:32:04.198Z,56.76
2017-03-24T08:33:14.454Z,56.57
2017-03-24T08:34:24.706Z,56.57
2017-03-24T08:35:34.960Z,55.63
2017-03-24T08:36:45.221Z,55.72
2017-03-24T08:37:54.855Z,55.91
2017-03-24T08:39:05.108Z,55.82
2017-03-24T08:40:15.364Z,55.82
2017-03-24T08:41:25.309Z,55.82
2017-03-24T08:42:35.263Z,55.44
2017-03-24T08:43:45.525Z,55.56
2017-03-24T08:44:55.782Z,55.37
2017-03-24T08:46:05.137Z,55.75
2017-03-24T08:47:15.394Z,55.94
2017-03-24T08:48:25.657Z,55.84
2017-03-24T08:49:35.909Z,55.84
2017-03-24T08:50:45.544Z,55.56
2017-03-24T08:51:55.807Z,55.37
2017-03-24T08:53:05.749Z,56.03
2017-03-24T08:54:16.005Z,56.13
2017-03-24T08:55:25.950Z,55.56
2017-03-24T08:56:35.898Z,55.56
2017-03-24T08:57:46.154Z,55.75
2017-03-24T08:58:56.099Z,55.56
2017-03-24T09:00:06.360Z,55.94
2017-03-24T09:01:16.307Z,56.6
2017-03-24T09:02:26.250Z,56.03
2017-03-24T09:03:36.188Z,56.32
2017-03-24T09:04:46.131Z,56.22
2017-03-24T09:05:56.075Z,56.79
2017-03-24T09:07:06.018Z,56.51
2017-03-24T09:08:15.959Z,57.26
2017-03-24T09:09:26.225Z,57.26
2017-03-24T09:10:36.483Z,56.51
2017-03-24T09:11:46.746Z,57.35
2017-03-24T09:12:56.688Z,56.51
2017-03-24T09:14:06.948Z,56.79
2017-03-24T09:15:17.205Z,56.79
2017-03-24T09:16:26.525Z,57.07
2017-03-24T09:17:36.783Z,57.17
2017-03-24T09:18:46.723Z,57.26
2017-03-24T09:19:56.663Z,57.26
2017-03-24T09:21:06.923Z,57.1
2017-03-24T09:22:17.181Z,55.77
2017-03-24T09:23:27.442Z,55.94
2017-03-24T09:24:37.737Z,56.15
2017-03-24T09:25:47.682Z,55.58
2017-03-24T09:26:57.627Z,56.15
2017-03-24T09:28:07.575Z,55.94
2017-03-24T09:29:17.831Z,55.65
2017-03-24T09:30:28.089Z,56.6
2017-03-24T09:31:38.341Z,56.72
2017-03-24T09:32:48.598Z,57.1
2017-03-24T09:33:58.544Z,57.2
2017-03-24T09:35:08.490Z,57.48
2017-03-24T09:36:18.750Z,55.96
2017-03-24T09:37:29.008Z,55.3
2017-03-24T09:38:39.265Z,55.68
2017-03-24T09:39:48.898Z,55.77
2017-03-24T09:40:58.841Z,55.77
2017-03-24T09:42:09.110Z,55.96
2017-03-24T09:43:19.370Z,56.15
2017-03-24T09:44:29.630Z,56.15
2017-03-24T09:45:39.263Z,56.06
2017-03-24T09:46:48.892Z,56.06
2017-03-24T09:47:58.840Z,56.34
2017-03-24T09:49:08.805Z,55.58
2017-03-24T09:50:19.058Z,55.87
2017-03-24T09:51:29.311Z,56.15
2017-03-24T09:52:39.254Z,55.68
2017-03-24T09:53:49.195Z,55.77
2017-03-24T09:54:58.512Z,54.93
2017-03-24T09:56:08.773Z,55.11
2017-03-24T09:57:18.405Z,55.87
2017-03-24T09:58:28.047Z,55.99
2017-03-24T09:59:38.315Z,57.04
2017-03-24T10:00:48.258Z,56.09
2017-03-24T10:01:58.520Z,55.33
2017-03-24T10:03:08.476Z,55.8
2017-03-24T10:04:18.426Z,55.24
2017-03-24T10:05:28.370Z,55.33
2017-03-24T10:06:38.626Z,56.09
2017-03-24T10:07:48.576Z,56.09
2017-03-24T10:08:58.824Z,56.09
2017-03-24T10:10:08.452Z,56.85
2017-03-24T10:11:18.706Z,56.66
2017-03-24T10:12:28.648Z,56.27
2017-03-24T10:13:38.590Z,56.18
2017-03-24T10:14:48.853Z,56.09
2017-03-24T10:15:59.149Z,56.94
2017-03-24T10:17:09.095Z,56.18
2017-03-24T10:18:19.038Z,56.56
2017-03-24T10:19:29.296Z,55.52
2017-03-24T10:20:38.933Z,56.09
2017-03-24T10:21:49.187Z,56.66
2017-03-24T10:22:59.129Z,56.09
2017-03-24T10:24:09.069Z,55.8
2017-03-24T10:25:19.326Z,55.9
2017-03-24T10:26:29.267Z,56.66
2017-03-24T10:27:39.523Z,58.2
2017-03-24T10:28:49.787Z,56.97
2017-03-24T10:29:59.871Z,55.29
2017-03-24T10:31:10.127Z,54.82
2017-03-24T10:32:20.072Z,53.87
2017-03-24T10:33:30.333Z,52.28
2017-03-24T10:34:40.602Z,52.19
2017-03-24T10:35:50.565Z,51.9
2017-03-24T10:37:00.516Z,52
2017-03-24T10:38:10.773Z,51.33
2017-03-24T10:39:20.717Z,51.59
2017-03-24T10:40:30.972Z,51.87
2017-03-24T10:41:41.232Z,52.98
2017-03-24T10:42:51.495Z,53.37
2017-03-24T10:44:01.440Z,53.56
2017-03-24T10:45:11.702Z,54.32
2017-03-24T10:46:21.692Z,56.02
2017-03-24T10:47:31.638Z,55.86
2017-03-24T10:48:41.894Z,54.53
2017-03-24T10:49:52.151Z,53.58
2017-03-24T10:51:02.098Z,54.44
2017-03-24T10:52:11.728Z,55.17
2017-03-24T10:53:21.989Z,55.9
2017-03-24T10:54:32.245Z,56.09
2017-03-24T10:55:41.876Z,55.9
2017-03-24T10:56:52.175Z,55.71
2017-03-24T10:58:02.439Z,56.87
2017-03-24T10:59:12.390Z,57.35
2017-03-24T11:00:22.674Z,57.13
2017-03-24T11:01:32.938Z,57.32
2017-03-24T11:02:43.195Z,57.23
2017-03-24T11:03:53.449Z,58.07
2017-03-24T11:05:03.393Z,58.07
2017-03-24T11:06:13.665Z,57.98
2017-03-24T11:07:23.927Z,55.83
2017-03-24T11:08:34.197Z,54.6
2017-03-24T11:09:44.137Z,55.29
2017-03-24T11:10:54.397Z,55.48
2017-03-24T11:12:03.747Z,53.68
2017-03-24T11:13:14.001Z,51.97
2017-03-24T11:14:23.939Z,52.45
2017-03-24T11:15:34.198Z,51.52
2017-03-24T11:16:44.454Z,50.67
2017-03-24T11:17:54.393Z,50.29
2017-03-24T11:19:04.019Z,52.09
2017-03-24T11:20:14.277Z,49.72
2017-03-24T11:21:24.219Z,49.82
2017-03-24T11:22:34.159Z,50.57
2017-03-24T11:23:44.431Z,50.1
2017-03-24T11:24:54.686Z,49.82
2017-03-24T11:26:04.947Z,48.86
2017-03-24T11:27:14.577Z,49.05
2017-03-24T11:28:24.837Z,49.43
2017-03-24T11:29:35.086Z,49.63
2017-03-24T11:30:45.027Z,49.82
2017-03-24T11:31:54.965Z,50.1
2017-03-24T11:33:04.908Z,50.29
2017-03-24T11:34:15.163Z,49.72
2017-03-24T11:35:25.417Z,50.57
2017-03-24T11:36:35.361Z,51.24
2017-03-24T11:37:45.611Z,51.05
2017-03-24T11:38:55.869Z,51.74
2017-03-24T11:40:06.123Z,50.22
2017-03-24T11:41:16.068Z,50.98
2017-03-24T11:42:26.326Z,51.64
2017-03-24T11:43:36.614Z,51.36
2017-03-24T11:44:46.247Z,53.07
2017-03-24T11:45:56.499Z,51.72
2017-03-24T11:47:06.770Z,50.48
2017-03-24T11:48:16.714Z,50.76
2017-03-24T11:49:26.970Z,50.29
2017-03-24T11:50:36.916Z,50.1
2017-03-24T11:51:47.174Z,50.67
2017-03-24T11:52:57.116Z,50.86
2017-03-24T11:54:07.058Z,50.86
2017-03-24T11:55:16.697Z,51.33
2017-03-24T11:56:26.996Z,52.37
2017-03-24T11:57:37.267Z,51.9
2017-03-24T11:58:46.911Z,52.09
2017-03-24T11:59:56.875Z,51.81
2017-03-24T12:01:06.504Z,53.23
2017-03-24T12:02:16.448Z,53.7
2017-03-24T12:03:26.398Z,53.61
2017-03-24T12:04:36.670Z,54.75
2017-03-24T12:05:46.926Z,54.66
2017-03-24T12:06:56.552Z,55.6
2017-03-24T12:08:06.501Z,56.74
2017-03-24T12:09:16.131Z,57.4
2017-03-24T12:10:26.434Z,58.04
2017-03-24T12:11:36.688Z,58.99
2017-03-24T12:12:46.633Z,60.13
2017-03-24T12:13:56.889Z,61.36
2017-03-24T12:15:06.541Z,60.31
2017-03-24T12:16:16.485Z,61.17
2017-03-24T12:17:26.741Z,61.55
2017-03-24T12:18:37.033Z,60.98
2017-03-24T12:19:46.976Z,60.31
2017-03-24T12:20:56.916Z,60.22
2017-03-24T12:22:06.248Z,60.41
2017-03-24T12:23:16.504Z,60.41
2017-03-24T12:24:25.813Z,60.6
2017-03-24T12:25:36.069Z,60.98
2017-03-24T12:26:46.010Z,61.08
2017-03-24T12:27:56.269Z,60.5
2017-03-24T12:29:06.526Z,61.27
2017-03-24T12:30:16.473Z,61.55
2017-03-24T12:31:26.732Z,62.5
2017-03-24T12:32:36.993Z,62.21
2017-03-24T12:33:46.937Z,63.54
2017-03-24T12:34:56.882Z,63.45
2017-03-24T12:36:07.139Z,64.3
2017-03-24T12:37:17.396Z,65.34
2017-03-24T12:38:27.650Z,65.22
2017-03-24T12:39:37.913Z,67.02
2017-03-24T12:40:47.225Z,68.15
2017-03-24T12:41:57.170Z,69.48
2017-03-24T12:43:07.430Z,71.19
2017-03-24T12:44:17.060Z,72.04
2017-03-24T12:45:26.997Z,72.52
2017-03-24T12:46:36.331Z,72.33
2017-03-24T12:47:46.268Z,72.42
2017-03-24T12:48:56.219Z,72.33
2017-03-24T12:50:06.476Z,73.05
2017-03-24T12:51:16.429Z,73.43
2017-03-24T12:52:26.383Z,73.61
2017-03-24T12:53:36.635Z,73.99
2017-03-24T12:54:46.893Z,74.18
2017-03-24T12:55:57.150Z,74.09
2017-03-24T12:57:06.778Z,74.18
2017-03-24T12:58:17.032Z,74.95
2017-03-24T12:59:26.662Z,75.04
2017-03-24T13:00:36.291Z,75.6
2017-03-24T13:01:45.922Z,75.89
2017-03-24T13:02:56.229Z,75.6
2017-03-24T13:04:06.490Z,76.46
2017-03-24T13:05:16.433Z,76.55
2017-03-24T13:06:26.383Z,77.03
2017-03-24T13:07:36.325Z,77.88
2017-03-24T13:08:46.579Z,77.59
2017-03-24T13:09:56.843Z,78.16
2017-03-24T13:11:07.115Z,79.02
2017-03-24T13:12:17.376Z,79.58
2017-03-24T13:13:27.626Z,80.44
2017-03-24T13:14:37.566Z,80.72
2017-03-24T13:15:47.510Z,81.15
2017-03-24T13:16:57.453Z,82.01
2017-03-24T13:18:07.709Z,82.86
2017-03-24T13:19:17.037Z,82.86
2017-03-24T13:20:26.034Z,83.62
2017-03-24T13:21:36.298Z,84.47
2017-03-24T13:22:46.565Z,85.04
2017-03-24T13:23:56.503Z,85.7
2017-03-24T13:25:06.483Z,85.51
2017-03-24T13:26:16.474Z,85.99
2017-03-24T13:27:26.422Z,86.55
2017-03-24T13:28:36.059Z,86.46
2017-03-24T13:29:46.001Z,87.21
2017-03-24T13:30:56.255Z,87.5
2017-03-24T13:32:06.513Z,87.69
2017-03-24T13:33:16.777Z,87.78
2017-03-24T13:34:26.402Z,87.69
2017-03-24T13:35:36.027Z,87.78
2017-03-24T13:36:45.971Z,87.88
2017-03-24T13:37:55.916Z,87.88
2017-03-24T13:39:05.228Z,88.17
2017-03-24T13:40:14.852Z,87.78
2017-03-24T13:41:25.110Z,88.73
2017-03-24T13:42:35.365Z,88.64
2017-03-24T13:43:45.626Z,89.2
2017-03-24T13:44:55.882Z,88.82
2017-03-24T13:46:05.822Z,88.64
2017-03-24T13:47:15.484Z,88.64
2017-03-24T13:48:25.421Z,88.54
2017-03-24T13:49:35.680Z,88.92
2017-03-24T13:50:45.619Z,88.92
2017-03-24T13:51:55.874Z,89.01
2017-03-24T13:53:05.811Z,88.82
2017-03-24T13:54:16.069Z,88.73
2017-03-24T13:55:26.337Z,89.3
2017-03-24T13:56:36.282Z,89.39
2017-03-24T13:57:45.608Z,89.58
2017-03-24T13:58:55.863Z,89.11
2017-03-24T14:00:05.801Z,89.11
2017-03-24T14:01:16.055Z,89.01
2017-03-24T14:02:26.357Z,89.58
2017-03-24T14:03:36.611Z,89.49
2017-03-24T14:04:46.550Z,89.2
2017-03-24T14:05:56.809Z,89.3
2017-03-24T14:07:06.751Z,88.92
2017-03-24T14:08:16.692Z,89.58
2017-03-24T14:09:26.632Z,89.68
2017-03-24T14:10:36.587Z,89.01
2017-03-24T14:11:46.545Z,89.01
2017-03-24T14:12:56.485Z,88.73
2017-03-24T14:14:06.743Z,88.45
2017-03-24T14:15:16.369Z,88.07
2017-03-24T14:16:26.623Z,87.88
2017-03-24T14:17:36.880Z,88.26
2017-03-24T14:18:46.821Z,87.5
2017-03-24T14:19:57.123Z,88.35
2017-03-24T14:21:07.073Z,87.69
2017-03-24T14:22:17.327Z,87.4
2017-03-24T14:23:27.584Z,87.59
2017-03-24T14:24:37.841Z,87.4
2017-03-24T14:25:47.781Z,87.31
2017-03-24T14:26:57.414Z,87.69
2017-03-24T14:28:07.682Z,87.4
2017-03-24T14:29:17.934Z,87.78
2017-03-24T14:30:27.252Z,87.5
2017-03-24T14:31:37.514Z,87.59
2017-03-24T14:32:47.770Z,87.12
2017-03-24T14:33:57.084Z,87.59
2017-03-24T14:35:06.714Z,87.4
2017-03-24T14:36:16.664Z,87.5
2017-03-24T14:37:26.336Z,86.93
2017-03-24T14:38:35.022Z,87.5
2017-03-24T14:39:45.279Z,87.02
2017-03-24T14:40:55.221Z,86.93
2017-03-24T14:42:05.475Z,86.93
2017-03-24T14:43:15.418Z,87.4
2017-03-24T14:44:24.725Z,86.93
2017-03-24T14:45:34.669Z,87.12
2017-03-24T14:46:44.300Z,86.93
2017-03-24T14:47:54.253Z,86.74
2017-03-24T14:49:04.189Z,86.27
2017-03-24T14:50:14.449Z,86.74
2017-03-24T14:51:24.077Z,87.12
2017-03-24T14:52:36.021Z,87.21
2017-03-24T14:53:45.973Z,86.74
2017-03-24T14:54:55.598Z,87.4
2017-03-24T14:56:05.541Z,87.12
2017-03-24T14:57:15.176Z,86.83
2017-03-24T14:58:25.434Z,87.02
2017-03-24T14:59:35.379Z,87.12
2017-03-24T15:00:45.326Z,87.02
2017-03-24T15:01:55.269Z,87.12
2017-03-24T15:03:05.215Z,87.4
2017-03-24T15:04:15.481Z,87.21
2017-03-24T15:05:24.799Z,87.5
2017-03-24T15:06:34.742Z,87.59